WZZ3YX LBBG-EPWA
Flight info
| Callsign | WZZ3YX |
|---|---|
| Flight time | N/A |
| Altitude | 38000 |
| Route | GONGO L622 KOMAN DCT KARIL DCT KENIN DCT LENOV DCT ORTEB DCT KONZI DCT LOGDA |
| Aircraft | A20N/M-SDE1E2E3FGIJ1J4RWXY/LB1 |
Departure
| Time | N/A |
|---|---|
| Airport | Burgas Airport (LBBG) |
Arrival
| Time | 2026-05-06 16:22 |
|---|---|
| Airport | Warsaw Chopin Airport (EPWA) |
| Time | Latitude | Longitude | Altitude | Speed | Heading |
|---|---|---|---|---|---|
| 2026-05-06 15:40 | 48.33590 | 21.95102 | 37915 ft | 425 kts | 324° |
| 2026-05-06 15:41 | 48.38636 | 21.90464 | 37914 ft | 425 kts | 324° |
| 2026-05-06 15:41 | 48.43646 | 21.85847 | 37910 ft | 425 kts | 324° |
| 2026-05-06 15:42 | 48.48684 | 21.81194 | 37908 ft | 424 kts | 324° |
| 2026-05-06 15:42 | 48.53717 | 21.76535 | 37905 ft | 424 kts | 324° |
| 2026-05-06 15:43 | 48.58748 | 21.71867 | 37899 ft | 424 kts | 324° |
| 2026-05-06 15:43 | 48.63771 | 21.67195 | 37894 ft | 424 kts | 324° |
| 2026-05-06 15:44 | 48.68793 | 21.62513 | 37893 ft | 424 kts | 324° |
| 2026-05-06 15:44 | 48.73814 | 21.57821 | 37886 ft | 424 kts | 324° |
| 2026-05-06 15:45 | 48.78813 | 21.53138 | 37884 ft | 424 kts | 324° |
| 2026-05-06 15:45 | 48.83832 | 21.48426 | 37888 ft | 424 kts | 324° |
| 2026-05-06 15:46 | 48.88864 | 21.43690 | 37881 ft | 426 kts | 324° |
| 2026-05-06 15:46 | 48.93861 | 21.38975 | 37886 ft | 426 kts | 324° |
| 2026-05-06 15:47 | 48.98899 | 21.34210 | 37886 ft | 427 kts | 324° |
| 2026-05-06 15:47 | 49.03944 | 21.29428 | 37890 ft | 427 kts | 324° |
| 2026-05-06 15:48 | 49.08984 | 21.24639 | 37892 ft | 427 kts | 324° |
| 2026-05-06 15:48 | 49.14025 | 21.19838 | 37887 ft | 427 kts | 323° |
| 2026-05-06 15:49 | 49.19071 | 21.15020 | 37882 ft | 428 kts | 323° |
| 2026-05-06 15:49 | 49.24121 | 21.10186 | 37884 ft | 428 kts | 323° |
| 2026-05-06 15:50 | 49.29172 | 21.05340 | 37888 ft | 428 kts | 323° |
| 2026-05-06 15:50 | 49.34368 | 21.00819 | 37881 ft | 433 kts | 331° |
| 2026-05-06 15:51 | 49.40009 | 20.97473 | 37879 ft | 435 kts | 335° |
| 2026-05-06 15:51 | 49.45695 | 20.94218 | 37861 ft | 436 kts | 334° |
| 2026-05-06 15:52 | 49.51386 | 20.90964 | 37867 ft | 437 kts | 334° |
| 2026-05-06 15:52 | 49.57080 | 20.87713 | 37864 ft | 437 kts | 334° |
| 2026-05-06 15:53 | 49.62780 | 20.84451 | 37854 ft | 437 kts | 334° |
| 2026-05-06 15:53 | 49.68483 | 20.81180 | 37861 ft | 437 kts | 334° |
| 2026-05-06 15:54 | 49.73224 | 20.78453 | 37845 ft | 438 kts | 334° |
| 2026-05-06 15:54 | 49.78935 | 20.75164 | 37843 ft | 439 kts | 334° |
| 2026-05-06 15:55 | 49.85568 | 20.71331 | 37844 ft | 439 kts | 334° |
| 2026-05-06 15:55 | 49.91299 | 20.68010 | 37849 ft | 440 kts | 334° |
| 2026-05-06 15:56 | 49.96101 | 20.65221 | 37842 ft | 440 kts | 334° |
| 2026-05-06 15:56 | 50.01843 | 20.61877 | 37844 ft | 441 kts | 334° |
| 2026-05-06 15:57 | 50.07673 | 20.58830 | 37841 ft | 446 kts | 342° |
| 2026-05-06 15:57 | 50.13881 | 20.57577 | 37843 ft | 455 kts | 354° |
| 2026-05-06 15:58 | 50.20267 | 20.58055 | 37855 ft | 463 kts | 359° |
| 2026-05-06 15:58 | 50.26683 | 20.58687 | 37841 ft | 462 kts | 359° |
| 2026-05-06 15:59 | 50.33055 | 20.59332 | 37839 ft | 462 kts | 359° |
| 2026-05-06 15:59 | 50.36257 | 20.59662 | 37701 ft | 460 kts | 359° |
| 2026-05-06 15:59 | 50.39451 | 20.59994 | 37190 ft | 460 kts | 359° |
| 2026-05-06 16:00 | 50.42651 | 20.60325 | 36418 ft | 463 kts | 359° |
| 2026-05-06 16:00 | 50.45875 | 20.60658 | 35404 ft | 466 kts | 359° |
| 2026-05-06 16:00 | 50.49137 | 20.60994 | 34178 ft | 475 kts | 359° |
| 2026-05-06 16:00 | 50.52445 | 20.61338 | 33323 ft | 476 kts | 359° |
| 2026-05-06 16:01 | 50.55748 | 20.61685 | 32547 ft | 475 kts | 359° |
| 2026-05-06 16:01 | 50.59049 | 20.62033 | 31728 ft | 475 kts | 360° |
| 2026-05-06 16:01 | 50.62353 | 20.62379 | 30907 ft | 476 kts | 360° |
| 2026-05-06 16:01 | 50.65645 | 20.62724 | 30319 ft | 471 kts | 360° |
| 2026-05-06 16:02 | 50.68902 | 20.63068 | 29709 ft | 467 kts | 359° |
| 2026-05-06 16:02 | 50.72133 | 20.63408 | 28810 ft | 464 kts | 359° |
| 2026-05-06 16:02 | 50.75368 | 20.63744 | 27306 ft | 469 kts | 360° |
| 2026-05-06 16:02 | 50.78636 | 20.64083 | 26059 ft | 470 kts | 0° |
| 2026-05-06 16:03 | 50.81878 | 20.64424 | 25116 ft | 463 kts | 0° |
| 2026-05-06 16:03 | 50.85068 | 20.64762 | 24203 ft | 456 kts | 0° |
| 2026-05-06 16:03 | 50.88209 | 20.65094 | 23290 ft | 450 kts | 1° |
| 2026-05-06 16:03 | 50.91315 | 20.65423 | 22189 ft | 446 kts | 0° |
| 2026-05-06 16:04 | 50.94410 | 20.65752 | 21129 ft | 443 kts | 360° |
| 2026-05-06 16:04 | 50.97441 | 20.66075 | 20605 ft | 430 kts | 360° |
| 2026-05-06 16:04 | 51.00407 | 20.66392 | 20093 ft | 424 kts | 360° |
| 2026-05-06 16:04 | 51.03333 | 20.66701 | 19556 ft | 419 kts | 360° |
| 2026-05-06 16:05 | 51.06231 | 20.67008 | 19011 ft | 415 kts | 360° |
| 2026-05-06 16:05 | 51.09099 | 20.67312 | 18483 ft | 412 kts | 360° |
| 2026-05-06 16:05 | 51.11948 | 20.67615 | 17913 ft | 409 kts | 0° |
| 2026-05-06 16:05 | 51.14767 | 20.67916 | 17385 ft | 403 kts | 0° |
| 2026-05-06 16:06 | 51.17549 | 20.68215 | 16865 ft | 398 kts | 360° |
| 2026-05-06 16:06 | 51.20301 | 20.68510 | 16353 ft | 394 kts | 0° |
| 2026-05-06 16:06 | 51.22983 | 20.68797 | 15843 ft | 390 kts | 0° |
| 2026-05-06 16:06 | 51.25673 | 20.69088 | 15349 ft | 386 kts | 1° |
| 2026-05-06 16:07 | 51.28303 | 20.69796 | 15005 ft | 381 kts | 12° |
| 2026-05-06 16:07 | 51.30779 | 20.71201 | 14639 ft | 376 kts | 22° |
| 2026-05-06 16:07 | 51.33120 | 20.73027 | 14184 ft | 373 kts | 24° |
| 2026-05-06 16:07 | 51.35441 | 20.74836 | 13721 ft | 370 kts | 24° |
| 2026-05-06 16:08 | 51.37743 | 20.76626 | 13235 ft | 366 kts | 24° |
| 2026-05-06 16:08 | 51.40024 | 20.78401 | 12780 ft | 362 kts | 24° |
| 2026-05-06 16:08 | 51.42278 | 20.80161 | 12324 ft | 359 kts | 24° |
| 2026-05-06 16:08 | 51.44510 | 20.81908 | 11876 ft | 355 kts | 24° |
| 2026-05-06 16:09 | 51.46717 | 20.83636 | 11436 ft | 351 kts | 24° |
| 2026-05-06 16:09 | 51.48893 | 20.85343 | 11000 ft | 349 kts | 24° |
| 2026-05-06 16:09 | 51.51063 | 20.87048 | 10556 ft | 346 kts | 24° |
| 2026-05-06 16:09 | 51.53210 | 20.88737 | 10131 ft | 343 kts | 24° |
| 2026-05-06 16:10 | 51.55325 | 20.90402 | 9970 ft | 331 kts | 24° |
| 2026-05-06 16:10 | 51.57353 | 20.92005 | 9844 ft | 319 kts | 23° |
| 2026-05-06 16:10 | 51.59323 | 20.93559 | 9558 ft | 313 kts | 23° |
| 2026-05-06 16:10 | 51.61255 | 20.95082 | 9282 ft | 306 kts | 23° |
| 2026-05-06 16:11 | 51.63160 | 20.96584 | 8923 ft | 303 kts | 24° |
| 2026-05-06 16:11 | 51.65011 | 20.98045 | 8713 ft | 294 kts | 24° |
| 2026-05-06 16:11 | 51.66810 | 20.99470 | 8599 ft | 282 kts | 24° |
| 2026-05-06 16:11 | 51.68541 | 21.00843 | 8411 ft | 274 kts | 24° |
| 2026-05-06 16:12 | 51.70237 | 21.02187 | 8192 ft | 268 kts | 24° |
| 2026-05-06 16:12 | 51.71898 | 21.03504 | 7902 ft | 265 kts | 24° |
| 2026-05-06 16:12 | 51.73547 | 21.04811 | 7589 ft | 263 kts | 24° |
| 2026-05-06 16:12 | 51.75160 | 21.06089 | 7431 ft | 264 kts | 24° |
| 2026-05-06 16:13 | 51.76837 | 21.07420 | 7182 ft | 273 kts | 24° |
| 2026-05-06 16:13 | 51.78534 | 21.08770 | 6992 ft | 268 kts | 24° |
| 2026-05-06 16:13 | 51.80189 | 21.10091 | 6593 ft | 264 kts | 24° |
| 2026-05-06 16:13 | 51.81826 | 21.11395 | 6239 ft | 261 kts | 25° |
| 2026-05-06 16:14 | 51.83453 | 21.12693 | 5910 ft | 261 kts | 24° |
| 2026-05-06 16:14 | 51.85074 | 21.13988 | 5604 ft | 259 kts | 25° |
| 2026-05-06 16:14 | 51.86687 | 21.15278 | 5306 ft | 258 kts | 24° |
| 2026-05-06 16:14 | 51.88290 | 21.16560 | 4999 ft | 256 kts | 24° |
| 2026-05-06 16:15 | 51.89890 | 21.17821 | 4709 ft | 255 kts | 20° |
| 2026-05-06 16:15 | 51.91592 | 21.18262 | 4413 ft | 245 kts | 349° |
| 2026-05-06 16:15 | 51.93153 | 21.17390 | 4229 ft | 232 kts | 329° |
| 2026-05-06 16:15 | 51.94522 | 21.16160 | 4136 ft | 220 kts | 326° |
| 2026-05-06 16:16 | 51.95780 | 21.14963 | 3962 ft | 201 kts | 325° |
| 2026-05-06 16:16 | 51.96956 | 21.13863 | 3717 ft | 189 kts | 326° |
| 2026-05-06 16:16 | 51.98078 | 21.12843 | 3435 ft | 179 kts | 326° |
| 2026-05-06 16:16 | 51.99161 | 21.11892 | 3158 ft | 170 kts | 327° |
| 2026-05-06 16:17 | 52.00167 | 21.11038 | 3099 ft | 157 kts | 327° |
| 2026-05-06 16:17 | 52.01091 | 21.10236 | 3019 ft | 144 kts | 326° |
| 2026-05-06 16:17 | 52.01971 | 21.09467 | 2961 ft | 144 kts | 326° |
| 2026-05-06 16:17 | 52.02853 | 21.08698 | 2898 ft | 144 kts | 327° |
| 2026-05-06 16:18 | 52.03727 | 21.07937 | 2828 ft | 143 kts | 327° |
| 2026-05-06 16:18 | 52.04602 | 21.07175 | 2702 ft | 141 kts | 326° |
| 2026-05-06 16:18 | 52.05465 | 21.06422 | 2540 ft | 141 kts | 326° |
| 2026-05-06 16:18 | 52.06328 | 21.05670 | 2372 ft | 141 kts | 325° |
| 2026-05-06 16:19 | 52.07190 | 21.04917 | 2202 ft | 142 kts | 324° |
| 2026-05-06 16:19 | 52.08057 | 21.04161 | 2017 ft | 141 kts | 325° |
| 2026-05-06 16:19 | 52.08920 | 21.03408 | 1843 ft | 141 kts | 325° |
| 2026-05-06 16:19 | 52.09758 | 21.02679 | 1658 ft | 135 kts | 325° |
| 2026-05-06 16:20 | 52.10603 | 21.01935 | 1478 ft | 139 kts | 326° |
| 2026-05-06 16:20 | 52.11437 | 21.01212 | 1302 ft | 136 kts | 326° |
| 2026-05-06 16:20 | 52.12274 | 21.00481 | 1122 ft | 136 kts | 327° |
| 2026-05-06 16:20 | 52.13095 | 20.99762 | 936 ft | 132 kts | 326° |
| 2026-05-06 16:21 | 52.13911 | 20.99045 | 726 ft | 135 kts | 327° |
| 2026-05-06 16:21 | 52.14738 | 20.98332 | 549 ft | 133 kts | 326° |
| 2026-05-06 16:21 | 52.15547 | 20.97608 | 376 ft | 133 kts | 328° |
| 2026-05-06 16:21 | 52.16286 | 20.96954 | 337 ft | 96 kts | 333° |
| 2026-05-06 16:22 | 52.16699 | 20.96601 | 336 ft | 33 kts | 335° |
| 2026-05-06 16:22 | 52.16907 | 20.96510 | 332 ft | 26 kts | 2° |
| 2026-05-06 16:22 | 52.17050 | 20.96523 | 336 ft | 16 kts | 14° |
| 2026-05-06 16:22 | 52.17128 | 20.96631 | 332 ft | 11 kts | 356° |
| 2026-05-06 16:23 | 52.17204 | 20.96563 | 336 ft | 14 kts | 331° |
| 2026-05-06 16:23 | 52.17296 | 20.96482 | 334 ft | 16 kts | 332° |
| 2026-05-06 16:23 | 52.17397 | 20.96391 | 335 ft | 16 kts | 330° |
| 2026-05-06 16:23 | 52.17457 | 20.96403 | 332 ft | 9 kts | 62° |
| 2026-05-06 16:24 | 52.17492 | 20.96513 | 332 ft | 13 kts | 60° |
| 2026-05-06 16:24 | 52.17553 | 20.96540 | 336 ft | 7 kts | 328° |
| 2026-05-06 16:24 | 52.17608 | 20.96493 | 334 ft | 10 kts | 332° |
| 2026-05-06 16:24 | 52.17613 | 20.96445 | 336 ft | 4 kts | 240° |
| 2026-05-06 16:25 | 52.17593 | 20.96386 | 334 ft | 7 kts | 243° |
| 2026-05-06 16:25 | 52.17584 | 20.96356 | 335 ft | 1 kts | 245° |
| 2026-05-06 16:25 | 52.17582 | 20.96349 | 336 ft | 0 kts | 246° |